Capt. Shelby House — WDC6536 — position and weather

sailwx.info

Track history (hours):
 
Tides and Currents Weather Stations Pressure Air Temp Water Temp Dewpoint Dewpoint Depression Visibility Wind Speed Wind Dir Waves Ship Positions

Capt. Shelby House

Owner: American Commercial Lines LLC, Jeffersonville, IN. More information available from US FCC via Universal Licensing System and Coast Guard Vessel Documentation Center.

Last reported at 2018-Jan-08 02:26 UTC. Time now 2018-Jan-21 10:40 UTC.
Position N 32°40' W 091°08'.
Warning: this ship's position is 13 days out of date.

Length 48 m; draft 3.1 m.

Type: Towing. MMSI: 367057630.

Date/timePositionNaut miles runAvg speedWind from/ knotsBaromVisibWave heightAir tempDewpointWater temp
2018-Jan-08 02:26N 32°40' W 091°08'2 3.5
2018-Jan-08 01:55N 32°38' W 091°09'0 0.3
2018-Jan-08 01:30N 32°38' W 091°09'1 1.4
2018-Jan-08 01:00N 32°37' W 091°09'2 3.8
2018-Jan-08 00:30N 32°36' W 091°08'2 4.0
2018-Jan-08 00:00N 32°34' W 091°07'2 3.8
2018-Jan-07 23:30N 32°33' W 091°06'2 4.3
2018-Jan-07 23:00N 32°31' W 091°07'2 4.6
2018-Jan-07 22:30N 32°28' W 091°06'2 4.5
2018-Jan-07 22:00N 32°27' W 091°04'2 4.4
2018-Jan-07 21:30N 32°26' W 091°02'2 4.4
2018-Jan-07 21:00N 32°25' W 090°60'2 4.2
2018-Jan-07 20:30N 32°23' W 091°00'2 4.0
2018-Jan-07 20:00N 32°21' W 090°59'2 4.7
2018-Jan-07 19:30N 32°21' W 090°56'2 4.1
2018-Jan-07 19:01N 32°20' W 090°54'2 4.1
2018-Jan-07 18:30N 32°18' W 090°55'0 0.4
2018-Jan-07 18:00N 32°18' W 090°55'0 0.0
2018-Jan-07 17:30N 32°18' W 090°55'0 0.1
2018-Jan-07 17:00N 32°18' W 090°55'0 0.0
2018-Jan-07 16:30N 32°18' W 090°55'0 0.0
2018-Jan-07 16:00N 32°18' W 090°55'2 3.0
2018-Jan-07 15:30N 32°17' W 090°57'2 4.3
2018-Jan-07 15:00N 32°15' W 090°58'2 3.9
2018-Jan-07 14:30N 32°14' W 090°59'2 4.6
2018-Jan-07 14:00N 32°11' W 090°60'2 4.3
2018-Jan-07 13:30N 32°09' W 091°00'2 4.2
2018-Jan-07 13:00N 32°07' W 091°01'2 4.0
2018-Jan-07 12:30N 32°08' W 091°04'2 4.2
2018-Jan-07 12:00N 32°08' W 091°06'5 4.1
2018-Jan-07 10:44N 32°03' W 091°03'2 5.4
2018-Jan-07 10:26N 32°02' W 091°04'2 5.5
2018-Jan-07 09:59N 31°60' W 091°06'2 4.3
2018-Jan-07 09:30N 31°59' W 091°08'  
2018-Jan-02 08:26N 32°02' W 091°04'3 7.6
2018-Jan-02 07:59N 32°06' W 091°05'2 4.8
2018-Jan-02 07:30N 32°08' W 091°06'4 7.3
2018-Jan-02 07:00N 32°07' W 091°02'4 7.8
2018-Jan-02 06:30N 32°11' W 090°60'4 8.9
2018-Jan-02 06:00N 32°15' W 090°59'4 8.4
2018-Jan-02 05:30N 32°18' W 090°55'3 3.5
2018-Jan-02 04:30N 32°21' W 090°57'0 0.0
2018-Jan-02 04:00N 32°21' W 090°57'0 0.0
2018-Jan-02 03:30N 32°21' W 090°57'0 0.0
2018-Jan-02 03:00N 32°21' W 090°57'0 0.0
2018-Jan-02 02:30N 32°21' W 090°57'1 1.5
2018-Jan-02 02:00N 32°21' W 090°58'3 5.5
2018-Jan-02 01:30N 32°23' W 090°60'3 5.7
2018-Jan-02 01:00N 32°26' W 091°01'3 6.2
2018-Jan-02 00:30N 32°27' W 091°05'4 7.4
2018-Jan-02 00:00N 32°30' W 091°07'4 8.1
2018-Jan-01 23:30N 32°34' W 091°06'4 8.3
2018-Jan-01 23:00N 32°37' W 091°09'  
Track history (hours):
 
Tides and Currents Weather Stations Pressure Air Temp Water Temp Dewpoint Dewpoint Depression Visibility Wind Speed Wind Dir Waves Ship Positions

Capt. Shelby House

Owner: American Commercial Lines LLC, Jeffersonville, IN. More information available from US FCC via Universal Licensing System and Coast Guard Vessel Documentation Center.

Last reported at 2018-Jan-08 02:26 UTC. Time now 2018-Jan-21 10:40 UTC.
Position N 32°40' W 091°08'.
Warning: this ship's position is 13 days out of date.

Length 48 m; draft 3.1 m.

Type: Towing. MMSI: 367057630.

Date/timePositionNaut miles runAvg speedWind from/ knotsBaromVisibWave heightAir tempDewpointWater temp
2018-Jan-08 02:26N 32°40' W 091°08'2 3.5
2018-Jan-08 01:55N 32°38' W 091°09'0 0.3
2018-Jan-08 01:30N 32°38' W 091°09'1 1.4
2018-Jan-08 01:00N 32°37' W 091°09'2 3.8
2018-Jan-08 00:30N 32°36' W 091°08'2 4.0
2018-Jan-08 00:00N 32°34' W 091°07'2 3.8
2018-Jan-07 23:30N 32°33' W 091°06'2 4.3
2018-Jan-07 23:00N 32°31' W 091°07'2 4.6
2018-Jan-07 22:30N 32°28' W 091°06'2 4.5
2018-Jan-07 22:00N 32°27' W 091°04'2 4.4
2018-Jan-07 21:30N 32°26' W 091°02'2 4.4
2018-Jan-07 21:00N 32°25' W 090°60'2 4.2
2018-Jan-07 20:30N 32°23' W 091°00'2 4.0
2018-Jan-07 20:00N 32°21' W 090°59'2 4.7
2018-Jan-07 19:30N 32°21' W 090°56'2 4.1
2018-Jan-07 19:01N 32°20' W 090°54'2 4.1
2018-Jan-07 18:30N 32°18' W 090°55'0 0.4
2018-Jan-07 18:00N 32°18' W 090°55'0 0.0
2018-Jan-07 17:30N 32°18' W 090°55'0 0.1
2018-Jan-07 17:00N 32°18' W 090°55'0 0.0
2018-Jan-07 16:30N 32°18' W 090°55'0 0.0
2018-Jan-07 16:00N 32°18' W 090°55'2 3.0
2018-Jan-07 15:30N 32°17' W 090°57'2 4.3
2018-Jan-07 15:00N 32°15' W 090°58'2 3.9
2018-Jan-07 14:30N 32°14' W 090°59'2 4.6
2018-Jan-07 14:00N 32°11' W 090°60'2 4.3
2018-Jan-07 13:30N 32°09' W 091°00'2 4.2
2018-Jan-07 13:00N 32°07' W 091°01'2 4.0
2018-Jan-07 12:30N 32°08' W 091°04'2 4.2
2018-Jan-07 12:00N 32°08' W 091°06'5 4.1
2018-Jan-07 10:44N 32°03' W 091°03'2 5.4
2018-Jan-07 10:26N 32°02' W 091°04'2 5.5
2018-Jan-07 09:59N 31°60' W 091°06'2 4.3
2018-Jan-07 09:30N 31°59' W 091°08'  
2018-Jan-02 08:26N 32°02' W 091°04'3 7.6
2018-Jan-02 07:59N 32°06' W 091°05'2 4.8
2018-Jan-02 07:30N 32°08' W 091°06'4 7.3
2018-Jan-02 07:00N 32°07' W 091°02'4 7.8
2018-Jan-02 06:30N 32°11' W 090°60'4 8.9
2018-Jan-02 06:00N 32°15' W 090°59'4 8.4
2018-Jan-02 05:30N 32°18' W 090°55'3 3.5
2018-Jan-02 04:30N 32°21' W 090°57'0 0.0
2018-Jan-02 04:00N 32°21' W 090°57'0 0.0
2018-Jan-02 03:30N 32°21' W 090°57'0 0.0
2018-Jan-02 03:00N 32°21' W 090°57'0 0.0
2018-Jan-02 02:30N 32°21' W 090°57'1 1.5
2018-Jan-02 02:00N 32°21' W 090°58'3 5.5
2018-Jan-02 01:30N 32°23' W 090°60'3 5.7
2018-Jan-02 01:00N 32°26' W 091°01'3 6.2
2018-Jan-02 00:30N 32°27' W 091°05'4 7.4
2018-Jan-02 00:00N 32°30' W 091°07'4 8.1
2018-Jan-01 23:30N 32°34' W 091°06'4 8.3
2018-Jan-01 23:00N 32°37' W 091°09'  

Dump ship's entire track history